Main page
METAR-TAF:

METAR-TAF

Airports :

Chhatrapati Shivaji International Airport

Mumbai, India

latitude: 19-07N, longitude: 072-51E, elevation: 8 m

Current weather observation

The report was made 27 minutes ago, at 20:30 UTC
Wind 12 kt from the West/Northwest
Temperature 25°C
Humidity 65%
Pressure 1009 hPa
Visibility: 2500 m
Scattered clouds at a height of 2000 ft
light rain

METAR: VABB 222030Z 30012KT 2500 -RA SCT020 25/18 Q1009 NOSIG

Time: 02:27 (20:57 UTC)

Forecast

The report was made 57 minutes ago, at 20:00 UTC
Forecast valid from 22 at 21 UTC to 23 at 06 UTC
Wind 6 kt from the West/Northwest
Visibility: 2500 m
Few clouds at a height of 2000 ft
Scattered clouds at a height of 10000 ft
haze
Becoming
from 23 at 00 UTC to 23 at 02 UTC
Wind 6 kt from the East/Northeast
Temporary
from 23 at 03 UTC to 23 at 06 UTC
Visibility: 1500 m
mist, haze

TAF: VABB 222000Z 2221/2306 29006KT 2500 HZ FEW020 SCT100 BECMG 2300/2302 07006KT TEMPO 2303/2306 1500 BR HZ

Weather observations and forecasts of more than 4000 airports (METAR and TAF reports).

The available stations are represented by yellow and red dots on the map.

Hover mouse over dot to see the name of the station.

Then click to see weather observations and forecasts.

To change the map : click on the green buttons with a black cross to zoom in, on the green button with a dash to zoom out, or on the green arrows for adjacent maps.


METAR-TAF: